Time;durP1;ratioP1;P1;durP2;ratioP2;P2;SDS_P1;SDS_P2;PMS_P1;PMS_P2;Temp;Humidity;BMP_temperature;BMP_pressure;BME280_temperature;BME280_humidity;BME280_pressure;Samples;Min_cycle;Max_cycle;Signal;HPM_P1;HPM_P2
2021/04/16 00:01:44;;;;;;;;;;;17.50;49.00;;;;;;5027168;28;19925;-71
2021/04/16 00:04:09;;;;;;;;;;;17.60;49.00;;;;;;5044129;28;20344;-71
2021/04/16 00:06:35;;;;;;;;;;;17.50;48.90;;;;;;5045145;28;19917;-71
2021/04/16 00:09:00;;;;;;;;;;;17.50;49.00;;;;;;5045022;28;19917;-69
2021/04/16 00:11:26;;;;;;;;;;;17.50;49.00;;;;;;5044465;28;20000;-70
2021/04/16 00:13:51;;;;;;;;;;;17.50;49.00;;;;;;5044342;28;19952;-72
2021/04/16 00:16:18;;;;;;;;;;;17.50;49.60;;;;;;5044388;28;20626;-71
2021/04/16 00:18:44;;;;;;;;;;;17.50;49.00;;;;;;5045067;28;19920;-70
2021/04/16 00:21:09;;;;;;;;;;;17.50;49.00;;;;;;5043137;28;19921;-71
2021/04/16 00:23:35;;;;;;;;;;;17.50;49.10;;;;;;5043756;28;20376;-71
2021/04/16 00:26:00;;;;;;;;;;;17.50;49.00;;;;;;5044057;28;20602;-69
2021/04/16 00:28:26;;;;;;;;;;;17.50;48.90;;;;;;5043273;28;19920;-71
2021/04/16 00:30:54;;;;;;;;;;;17.50;48.80;;;;;;5043715;28;20370;-69
2021/04/16 00:33:19;;;;;;;;;;;17.60;48.80;;;;;;5043690;28;19917;-72
2021/04/16 00:35:45;;;;;;;;;;;17.60;48.60;;;;;;5043830;28;19923;-69
2021/04/16 00:38:10;;;;;;;;;;;17.60;48.60;;;;;;5043290;28;20663;-72
2021/04/16 00:40:43;;;;;;;;;;;17.60;48.50;;;;;;5044099;28;19917;-72
2021/04/16 00:43:09;;;;;;;;;;;17.70;48.40;;;;;;5044621;28;20591;-71
2021/04/16 00:45:34;;;;;;;;;;;17.70;48.20;;;;;;5044483;28;20704;-71
2021/04/16 00:48:00;;;;;;;;;;;17.70;48.10;;;;;;5045357;28;19917;-71
2021/04/16 00:50:27;;;;;;;;;;;17.70;48.10;;;;;;5042135;28;19979;-71
2021/04/16 00:52:52;;;;;;;;;;;17.70;47.90;;;;;;5042986;28;20027;-71
2021/04/16 00:55:18;;;;;;;;;;;17.70;47.90;;;;;;5042987;28;20004;-71
2021/04/16 00:57:43;;;;;;;;;;;17.70;47.80;;;;;;5043447;28;19921;-71
2021/04/16 01:00:09;;;;;;;;;;;17.70;47.80;;;;;;5043127;28;19921;-71
2021/04/16 01:02:35;;;;;;;;;;;17.70;47.70;;;;;;5042767;28;19923;-71
2021/04/16 01:05:00;;;;;;;;;;;17.70;47.70;;;;;;5043139;28;19917;-71
2021/04/16 01:07:25;;;;;;;;;;;17.70;47.70;;;;;;5042522;28;20003;-71
2021/04/16 01:09:51;;;;;;;;;;;17.70;47.70;;;;;;5043633;28;20948;-70
2021/04/16 01:12:16;;;;;;;;;;;17.70;47.70;;;;;;5044169;28;19916;-72
2021/04/16 01:14:42;;;;;;;;;;;17.70;47.70;;;;;;5044437;28;19929;-71
2021/04/16 01:17:08;;;;;;;;;;;17.70;47.90;;;;;;5043653;28;19939;-69
2021/04/16 01:19:38;;;;;;;;;;;17.70;47.90;;;;;;5043981;28;19924;-70
2021/04/16 01:22:13;;;;;;;;;;;17.60;47.80;;;;;;5051438;28;19966;-70
2021/04/16 01:24:38;;;;;;;;;;;17.70;47.80;;;;;;5025768;28;19967;-70
2021/04/16 01:27:10;;;;;;;;;;;17.70;47.70;;;;;;5043853;28;20424;-71
2021/04/16 01:29:37;;;;;;;;;;;17.70;47.70;;;;;;5042552;28;20288;-71
2021/04/16 01:32:02;;;;;;;;;;;17.70;47.70;;;;;;5043628;28;19979;-71
2021/04/16 01:34:28;;;;;;;;;;;17.70;47.60;;;;;;5044698;28;20396;-71
2021/04/16 01:36:54;;;;;;;;;;;17.70;47.60;;;;;;5044043;28;19944;-70
2021/04/16 01:39:20;;;;;;;;;;;17.70;47.50;;;;;;5042229;28;20022;-72
2021/04/16 01:41:45;;;;;;;;;;;17.70;47.40;;;;;;5043861;28;20372;-71
2021/04/16 01:44:13;;;;;;;;;;;17.70;47.40;;;;;;5043891;28;19924;-71
2021/04/16 01:46:49;;;;;;;;;;;17.70;47.40;;;;;;5025202;28;19917;-71
2021/04/16 01:49:14;;;;;;;;;;;17.70;47.40;;;;;;5043147;28;19921;-71
2021/04/16 01:51:40;;;;;;;;;;;17.70;47.40;;;;;;5042974;28;19924;-71
2021/04/16 01:54:08;;;;;;;;;;;17.70;47.40;;;;;;5043801;28;19921;-71
2021/04/16 01:56:34;;;;;;;;;;;17.70;47.40;;;;;;5043139;28;19916;-71
2021/04/16 01:58:59;;;;;;;;;;;17.70;47.40;;;;;;5043250;28;19917;-70
2021/04/16 02:01:24;;;;;;;;;;;17.70;47.40;;;;;;5043390;28;19917;-72
2021/04/16 02:03:50;;;;;;;;;;;17.70;47.30;;;;;;5044730;28;19920;-71
2021/04/16 02:06:15;;;;;;;;;;;17.70;47.40;;;;;;5044004;28;20289;-71
2021/04/16 02:08:41;;;;;;;;;;;17.70;47.40;;;;;;5044990;28;19939;-71
2021/04/16 02:11:06;;;;;;;;;;;17.70;47.50;;;;;;5043738;28;19924;-70
2021/04/16 02:13:32;;;;;;;;;;;17.60;47.60;;;;;;5044547;28;19916;-70
2021/04/16 02:15:57;;;;;;;;;;;17.60;47.70;;;;;;5043588;28;20572;-70
2021/04/16 02:18:23;;;;;;;;;;;17.60;47.70;;;;;;5044124;28;19970;-72
2021/04/16 02:20:48;;;;;;;;;;;17.60;47.80;;;;;;5042942;28;19917;-70
2021/04/16 02:23:13;;;;;;;;;;;17.60;47.80;;;;;;5043549;28;19921;-73
2021/04/16 02:25:39;;;;;;;;;;;17.50;47.90;;;;;;5043328;28;19990;-71
2021/04/16 02:28:04;;;;;;;;;;;17.60;47.90;;;;;;5043196;28;19924;-70
2021/04/16 02:30:31;;;;;;;;;;;17.50;48.00;;;;;;5041943;28;20003;-70
2021/04/16 02:32:57;;;;;;;;;;;17.50;48.10;;;;;;5042869;28;19924;-70
2021/04/16 02:35:22;;;;;;;;;;;17.50;48.20;;;;;;5041647;28;19932;-69
2021/04/16 02:37:47;;;;;;;;;;;17.40;48.30;;;;;;5041725;28;19952;-71
2021/04/16 02:40:14;;;;;;;;;;;17.40;48.30;;;;;;5041186;28;19955;-71
2021/04/16 02:42:39;;;;;;;;;;;17.40;48.40;;;;;;5042823;28;20012;-70
2021/04/16 02:45:06;;;;;;;;;;;17.40;48.50;;;;;;5042598;28;20017;-70
2021/04/16 02:47:31;;;;;;;;;;;17.40;48.60;;;;;;5041784;28;19917;-69
2021/04/16 02:49:57;;;;;;;;;;;17.40;48.60;;;;;;5041306;28;20526;-72
2021/04/16 02:52:22;;;;;;;;;;;17.40;48.70;;;;;;5042730;28;19933;-71
2021/04/16 02:54:48;;;;;;;;;;;17.40;48.70;;;;;;5043028;28;19923;-70
2021/04/16 02:57:13;;;;;;;;;;;17.40;48.70;;;;;;5042598;28;19952;-70
2021/04/16 02:59:39;;;;;;;;;;;17.40;48.70;;;;;;5042488;28;20329;-71
2021/04/16 03:02:04;;;;;;;;;;;17.40;48.70;;;;;;5042532;28;19917;-72
2021/04/16 03:04:30;;;;;;;;;;;17.40;48.80;;;;;;5043295;28;20325;-72
2021/04/16 03:06:55;;;;;;;;;;;17.40;48.70;;;;;;5042793;28;19970;-72
2021/04/16 03:09:20;;;;;;;;;;;17.40;48.70;;;;;;5043615;28;20015;-71
2021/04/16 03:11:46;;;;;;;;;;;17.40;48.70;;;;;;5046308;28;19925;-72
2021/04/16 03:14:11;;;;;;;;;;;17.40;48.60;;;;;;5046358;28;19920;-71
2021/04/16 03:16:37;;;;;;;;;;;17.40;48.60;;;;;;5046082;28;19923;-69
2021/04/16 03:19:02;;;;;;;;;;;17.40;48.60;;;;;;5046674;28;19989;-71
2021/04/16 03:21:28;;;;;;;;;;;17.50;48.60;;;;;;5045103;28;19923;-73
2021/04/16 03:23:54;;;;;;;;;;;17.50;48.50;;;;;;5045073;28;19927;-71
2021/04/16 03:26:19;;;;;;;;;;;17.40;48.40;;;;;;5045627;28;20761;-71
2021/04/16 03:28:44;;;;;;;;;;;17.50;49.00;;;;;;5049775;28;20555;-72
2021/04/16 03:31:10;;;;;;;;;;;17.50;48.30;;;;;;5045318;28;20270;-70
2021/04/16 03:33:36;;;;;;;;;;;17.50;48.10;;;;;;5044659;28;19944;-69
2021/04/16 03:36:01;;;;;;;;;;;17.50;48.10;;;;;;5045858;28;19917;-70
2021/04/16 03:38:26;;;;;;;;;;;17.50;48.00;;;;;;5044340;28;19921;-71
2021/04/16 03:40:52;;;;;;;;;;;17.60;48.00;;;;;;5045736;28;19925;-71
2021/04/16 03:43:17;;;;;;;;;;;17.50;47.90;;;;;;5045841;28;20329;-71
2021/04/16 03:45:43;;;;;;;;;;;17.60;47.80;;;;;;5044684;28;20000;-71
2021/04/16 03:48:08;;;;;;;;;;;17.60;47.70;;;;;;5045578;28;19924;-70
2021/04/16 03:50:34;;;;;;;;;;;17.60;47.50;;;;;;5044978;28;19917;-72
2021/04/16 03:53:00;;;;;;;;;;;17.70;47.40;;;;;;5044715;28;19921;-71
2021/04/16 03:55:26;;;;;;;;;;;17.60;47.30;;;;;;5046132;28;19974;-72
2021/04/16 03:57:52;;;;;;;;;;;17.70;47.30;;;;;;5046319;28;19920;-71
2021/04/16 04:00:18;;;;;;;;;;;17.70;47.20;;;;;;5051634;28;19921;-72
2021/04/16 04:02:44;;;;;;;;;;;17.70;47.10;;;;;;5046441;28;19920;-72
2021/04/16 04:05:10;;;;;;;;;;;17.70;47.10;;;;;;5045193;28;19974;-72
2021/04/16 04:07:35;;;;;;;;;;;17.70;47.10;;;;;;5045045;28;19924;-71
2021/04/16 04:10:01;;;;;;;;;;;17.70;47.00;;;;;;5045129;28;19928;-71
2021/04/16 04:12:26;;;;;;;;;;;17.70;47.00;;;;;;5045056;28;19917;-70
2021/04/16 04:14:52;;;;;;;;;;;17.70;47.00;;;;;;5044986;28;20036;-71
2021/04/16 04:17:25;;;;;;;;;;;17.70;46.90;;;;;;5045758;28;20369;-70
2021/04/16 04:19:50;;;;;;;;;;;17.70;47.00;;;;;;5042748;28;19924;-71
2021/04/16 04:22:16;;;;;;;;;;;17.70;46.90;;;;;;5044150;28;19921;-70
2021/04/16 04:24:41;;;;;;;;;;;17.70;46.90;;;;;;5043732;28;20606;-70
2021/04/16 04:27:07;;;;;;;;;;;17.70;46.90;;;;;;5044848;28;19920;-71
2021/04/16 04:29:32;;;;;;;;;;;17.70;47.00;;;;;;5045605;28;20011;-72
2021/04/16 04:31:58;;;;;;;;;;;17.70;47.00;;;;;;5044839;28;19923;-71
2021/04/16 04:34:24;;;;;;;;;;;17.70;47.00;;;;;;5043966;28;19916;-71
2021/04/16 04:36:50;;;;;;;;;;;17.70;47.10;;;;;;5043969;28;19916;-74
2021/04/16 04:39:15;;;;;;;;;;;17.70;47.10;;;;;;5043677;28;20500;-73
2021/04/16 04:41:41;;;;;;;;;;;17.70;47.50;;;;;;5045564;28;19917;-71
2021/04/16 04:44:07;;;;;;;;;;;17.60;48.00;;;;;;5046497;28;20352;-71
2021/04/16 04:46:32;;;;;;;;;;;17.50;48.50;;;;;;5047681;28;19921;-71
2021/04/16 04:48:58;;;;;;;;;;;17.50;48.80;;;;;;5045606;28;19921;-73
2021/04/16 04:51:23;;;;;;;;;;;17.40;49.10;;;;;;5044056;28;19931;-71
2021/04/16 04:53:48;;;;;;;;;;;17.40;49.10;;;;;;5041002;28;19925;-71
2021/04/16 04:56:14;;;;;;;;;;;17.40;49.40;;;;;;5042123;28;19917;-73
2021/04/16 04:58:39;;;;;;;;;;;17.40;49.80;;;;;;5046269;28;20281;-71
2021/04/16 05:01:05;;;;;;;;;;;17.40;49.80;;;;;;5045545;28;19979;-72
2021/04/16 05:03:30;;;;;;;;;;;17.40;49.90;;;;;;5046171;28;19921;-71
2021/04/16 05:05:56;;;;;;;;;;;17.40;49.90;;;;;;5047617;28;19923;-72
2021/04/16 05:08:21;;;;;;;;;;;17.40;49.90;;;;;;5047221;28;19921;-73
2021/04/16 05:10:46;;;;;;;;;;;17.40;49.80;;;;;;5045884;28;19921;-71
2021/04/16 05:13:12;;;;;;;;;;;17.40;49.80;;;;;;5047623;28;19921;-71
2021/04/16 05:15:37;;;;;;;;;;;17.40;49.70;;;;;;5047744;28;19917;-73
2021/04/16 05:18:03;;;;;;;;;;;17.40;49.70;;;;;;5048038;28;19947;-72
2021/04/16 05:20:28;;;;;;;;;;;17.40;49.60;;;;;;5047556;28;20334;-72
2021/04/16 05:22:54;;;;;;;;;;;17.40;49.60;;;;;;5047540;28;20385;-72
2021/04/16 05:25:19;;;;;;;;;;;17.40;49.50;;;;;;5045530;28;19940;-71
2021/04/16 05:27:45;;;;;;;;;;;17.40;49.50;;;;;;5042493;28;19916;-70
2021/04/16 05:30:10;;;;;;;;;;;17.50;49.40;;;;;;5044474;28;19916;-70
2021/04/16 05:32:36;;;;;;;;;;;17.50;49.80;;;;;;5043193;28;19967;-70
2021/04/16 05:35:01;;;;;;;;;;;17.50;50.00;;;;;;5043440;28;19916;-69
2021/04/16 05:37:27;;;;;;;;;;;17.60;50.10;;;;;;5044415;28;20479;-72
2021/04/16 05:39:52;;;;;;;;;;;17.60;50.10;;;;;;5046167;28;19942;-72
2021/04/16 05:42:18;;;;;;;;;;;17.60;50.00;;;;;;5045064;28;19913;-71
2021/04/16 05:44:44;;;;;;;;;;;17.70;50.10;;;;;;5046153;28;19920;-70
2021/04/16 05:47:09;;;;;;;;;;;17.70;50.10;;;;;;5045198;28;19920;-70
2021/04/16 05:49:35;;;;;;;;;;;17.70;49.90;;;;;;5046193;28;20536;-70
2021/04/16 05:52:00;;;;;;;;;;;17.70;49.90;;;;;;5045429;28;19913;-71
2021/04/16 05:54:25;;;;;;;;;;;17.70;49.80;;;;;;5045690;28;19913;-71
2021/04/16 05:56:51;;;;;;;;;;;17.80;49.80;;;;;;5044582;28;20063;-71
2021/04/16 05:59:16;;;;;;;;;;;17.70;49.70;;;;;;5040513;23;19925;-60
2021/04/16 06:01:42;;;;;;;;;;;17.70;49.40;;;;;;4986262;28;19917;-61
2021/04/16 06:04:08;;;;;;;;;;;17.70;49.20;;;;;;5004828;28;19929;-60
2021/04/16 06:06:33;;;;;;;;;;;17.70;49.20;;;;;;4985488;28;19919;-58
2021/04/16 06:08:59;;;;;;;;;;;17.70;48.90;;;;;;5008486;28;20025;-61
2021/04/16 06:11:25;;;;;;;;;;;17.70;48.80;;;;;;5005900;28;20405;-59
2021/04/16 06:13:50;;;;;;;;;;;17.70;48.70;;;;;;5007692;28;19913;-56
2021/04/16 06:16:16;;;;;;;;;;;17.70;48.70;;;;;;5007642;28;20599;-59
2021/04/16 06:18:41;;;;;;;;;;;17.70;48.70;;;;;;4994189;28;19959;-60
2021/04/16 06:21:07;;;;;;;;;;;17.70;48.70;;;;;;5010342;28;19914;-58
2021/04/16 06:23:32;;;;;;;;;;;17.70;48.60;;;;;;5005916;28;19917;-61
2021/04/16 06:25:58;;;;;;;;;;;17.70;48.80;;;;;;5005803;28;20264;-62
2021/04/16 06:28:23;;;;;;;;;;;17.70;48.70;;;;;;5005919;28;20441;-59
2021/04/16 06:30:49;;;;;;;;;;;17.70;48.70;;;;;;4988281;28;20322;-58
2021/04/16 06:33:24;;;;;;;;;;;17.70;48.60;;;;;;5005812;28;19917;-62
2021/04/16 06:35:54;;;;;;;;;;;17.70;48.50;;;;;;5006027;28;19913;-60
2021/04/16 06:38:20;;;;;;;;;;;17.70;48.50;;;;;;5005046;28;19917;-60
2021/04/16 06:40:46;;;;;;;;;;;17.70;48.40;;;;;;5005086;28;19921;-59
2021/04/16 06:43:11;;;;;;;;;;;17.70;48.40;;;;;;5006827;28;20341;-64
2021/04/16 06:45:37;;;;;;;;;;;17.70;48.40;;;;;;4994816;28;19917;-62
2021/04/16 06:48:06;;;;;;;;;;;17.70;48.30;;;;;;5011851;28;20242;-60
2021/04/16 06:50:32;;;;;;;;;;;17.70;48.20;;;;;;4994670;28;20716;-59
2021/04/16 06:53:11;;;;;;;;;;;17.70;48.30;;;;;;5012288;28;19914;-62
2021/04/16 06:55:57;;;;;;;;;;;17.70;48.30;;;;;;4994464;28;19924;-57
2021/04/16 06:58:24;;;;;;;;;;;17.70;48.30;;;;;;4993673;28;20652;-60
2021/04/16 07:00:55;;;;;;;;;;;17.70;48.30;;;;;;4993828;28;19928;-59
2021/04/16 07:03:28;;;;;;;;;;;17.70;48.20;;;;;;5012079;28;19917;-58
2021/04/16 07:06:03;;;;;;;;;;;17.70;48.10;;;;;;5013319;28;19991;-60
2021/04/16 07:08:55;;;;;;;;;;;17.70;48.20;;;;;;5015952;28;20382;-61
2021/04/16 07:11:21;;;;;;;;;;;17.70;48.10;;;;;;5030739;28;19913;-57
2021/04/16 07:13:46;;;;;;;;;;;17.70;48.10;;;;;;5032898;28;19939;-58
2021/04/16 07:16:11;;;;;;;;;;;17.70;48.00;;;;;;5033765;28;19982;-66
2021/04/16 07:18:38;;;;;;;;;;;17.70;48.00;;;;;;5016375;28;19913;-61
2021/04/16 07:21:03;;;;;;;;;;;17.70;48.00;;;;;;5016373;28;20070;-61
2021/04/16 07:23:29;;;;;;;;;;;17.70;47.90;;;;;;5032317;28;19917;-59
2021/04/16 07:26:02;;;;;;;;;;;17.70;47.90;;;;;;5013051;28;20384;-59
2021/04/16 07:28:44;;;;;;;;;;;17.70;47.90;;;;;;5013916;28;19974;-60
2021/04/16 07:31:42;;;;;;;;;;;17.70;47.90;;;;;;5029794;28;19920;-60
2021/04/16 07:34:15;;;;;;;;;;;17.70;47.90;;;;;;5012951;28;19920;-60
2021/04/16 07:36:41;;;;;;;;;;;17.70;47.90;;;;;;5029309;28;19914;-58
2021/04/16 07:39:06;;;;;;;;;;;17.70;48.00;;;;;;5030905;28;19920;-58
2021/04/16 07:41:33;;;;;;;;;;;17.70;48.10;;;;;;5012398;28;19929;-59
2021/04/16 07:43:59;;;;;;;;;;;17.70;48.20;;;;;;5013971;28;19917;-60
2021/04/16 07:46:24;;;;;;;;;;;17.60;48.20;;;;;;5031884;28;19917;-60
2021/04/16 07:48:50;;;;;;;;;;;17.60;48.20;;;;;;5033700;28;19933;-59
2021/04/16 07:51:15;;;;;;;;;;;17.60;48.40;;;;;;5015686;28;19923;-57
2021/04/16 07:53:45;;;;;;;;;;;17.60;48.60;;;;;;4996336;28;19936;-61
2021/04/16 07:56:16;;;;;;;;;;;17.60;48.80;;;;;;5016084;28;19979;-57
2021/04/16 07:58:45;;;;;;;;;;;17.60;49.00;;;;;;5013177;28;19918;-57
2021/04/16 08:01:14;;;;;;;;;;;17.50;48.90;;;;;;5023540;28;19917;-57
2021/04/16 08:03:44;;;;;;;;;;;17.60;48.90;;;;;;5041113;28;19920;-56
2021/04/16 08:06:22;;;;;;;;;;;17.50;48.90;;;;;;5024051;28;20268;-58
2021/04/16 08:08:47;;;;;;;;;;;17.50;49.00;;;;;;5023329;28;19917;-60
2021/04/16 08:11:15;;;;;;;;;;;17.50;49.10;;;;;;5019602;28;20367;-58
2021/04/16 08:13:44;;;;;;;;;;;17.50;49.10;;;;;;5040668;28;19913;-59
2021/04/16 08:16:29;;;;;;;;;;;17.40;49.30;;;;;;5037632;28;19917;-60
2021/04/16 08:19:03;;;;;;;;;;;17.40;49.40;;;;;;5019716;28;19956;-61
2021/04/16 08:21:30;;;;;;;;;;;17.40;49.40;;;;;;5037611;28;19913;-60
2021/04/16 08:23:59;;;;;;;;;;;17.40;49.50;;;;;;5022103;28;19917;-61
2021/04/16 08:26:25;;;;;;;;;;;17.40;49.40;;;;;;5005325;28;19952;-60
2021/04/16 08:28:56;;;;;;;;;;;17.40;49.50;;;;;;5002591;28;19917;-61
2021/04/16 08:31:23;;;;;;;;;;;17.40;49.50;;;;;;5036206;28;19920;-59
2021/04/16 08:33:50;;;;;;;;;;;17.40;49.40;;;;;;5010722;28;19939;-57
2021/04/16 08:36:20;;;;;;;;;;;17.40;49.30;;;;;;5009631;28;19913;-60
2021/04/16 08:38:54;;;;;;;;;;;17.40;49.60;;;;;;5009895;28;20016;-58
2021/04/16 08:41:19;;;;;;;;;;;17.40;49.80;;;;;;5026682;28;19920;-61
2021/04/16 08:43:52;;;;;;;;;;;17.40;49.90;;;;;;5009313;28;19917;-67
2021/04/16 08:46:18;;;;;;;;;;;17.40;49.90;;;;;;5010034;28;19948;-57
2021/04/16 08:48:47;;;;;;;;;;;17.40;50.00;;;;;;5029871;28;19924;-61
2021/04/16 08:51:13;;;;;;;;;;;17.40;50.00;;;;;;5014598;28;19919;-59
2021/04/16 08:53:39;;;;;;;;;;;17.50;50.10;;;;;;5006085;28;19919;-59
2021/04/16 08:56:12;;;;;;;;;;;17.60;49.70;;;;;;5023525;28;19936;-59
2021/04/16 08:58:38;;;;;;;;;;;17.60;49.50;;;;;;5008910;28;19913;-60
2021/04/16 09:01:06;;;;;;;;;;;17.60;49.40;;;;;;5022555;28;19924;-58
2021/04/16 09:03:50;;;;;;;;;;;17.70;49.40;;;;;;5040879;28;19962;-59
2021/04/16 09:06:25;;;;;;;;;;;17.70;49.30;;;;;;5005224;28;19928;-60
2021/04/16 09:08:57;;;;;;;;;;;17.70;49.20;;;;;;5041583;28;19925;-58
2021/04/16 09:12:01;;;;;;;;;;;17.70;49.20;;;;;;5014436;28;19973;-58
2021/04/16 09:14:53;;;;;;;;;;;17.70;49.20;;;;;;5023473;28;19897;-58
2021/04/16 09:17:19;;;;;;;;;;;17.70;49.10;;;;;;5042464;28;20453;-61
2021/04/16 09:19:54;;;;;;;;;;;17.70;49.00;;;;;;5006992;28;19928;-59
2021/04/16 09:22:23;;;;;;;;;;;17.70;49.00;;;;;;5007197;28;19913;-59
2021/04/16 09:24:50;;;;;;;;;;;17.70;48.90;;;;;;5022380;28;19940;-57
2021/04/16 09:27:17;;;;;;;;;;;17.70;49.00;;;;;;5021842;28;19923;-59
2021/04/16 09:29:43;;;;;;;;;;;17.70;48.90;;;;;;5019147;28;19917;-58
2021/04/16 09:32:27;;;;;;;;;;;17.70;48.80;;;;;;5020116;28;19924;-58
2021/04/16 09:34:52;;;;;;;;;;;17.70;48.80;;;;;;5019547;28;19928;-58
2021/04/16 09:37:28;;;;;;;;;;;17.60;48.80;;;;;;5001671;28;19913;-61
2021/04/16 09:39:58;;;;;;;;;;;17.70;48.80;;;;;;5032284;28;19917;-61
2021/04/16 09:42:43;;;;;;;;;;;17.70;48.70;;;;;;5014523;28;19956;-60
2021/04/16 09:45:12;;;;;;;;;;;17.70;48.70;;;;;;5012207;28;19924;-62
2021/04/16 09:47:45;;;;;;;;;;;17.70;48.60;;;;;;5012826;28;19913;-58
2021/04/16 09:50:24;;;;;;;;;;;17.70;48.60;;;;;;5012950;28;19943;-61
2021/04/16 09:53:15;;;;;;;;;;;17.70;48.60;;;;;;5014457;28;20564;-57
2021/04/16 09:55:41;;;;;;;;;;;17.70;48.60;;;;;;4990977;28;19913;-58
2021/04/16 09:58:08;;;;;;;;;;;17.70;48.50;;;;;;5022629;28;19917;-59
2021/04/16 10:00:49;;;;;;;;;;;17.70;48.40;;;;;;5029027;28;19920;-57
2021/04/16 10:03:41;;;;;;;;;;;17.70;48.40;;;;;;5021462;28;19952;-57
2021/04/16 10:06:27;;;;;;;;;;;17.70;48.30;;;;;;5020041;28;20620;-60
2021/04/16 10:09:20;;;;;;;;;;;17.70;48.30;;;;;;5006856;28;19944;-61
2021/04/16 10:11:51;;;;;;;;;;;17.70;48.20;;;;;;5036309;28;19976;-59
2021/04/16 10:14:21;;;;;;;;;;;17.70;48.20;;;;;;5039084;28;19944;-62
2021/04/16 10:16:50;;;;;;;;;;;17.70;48.10;;;;;;5037233;28;19917;-62
2021/04/16 10:19:18;;;;;;;;;;;17.70;48.10;;;;;;5020560;28;19913;-60
2021/04/16 10:21:44;;;;;;;;;;;17.70;48.10;;;;;;5019213;28;20741;-59
2021/04/16 10:25:24;;;;;;;;;;;17.70;48.10;;;;;;5022240;28;20012;-60
2021/04/16 10:31:30;;;;;;;;;;;17.70;48.10;;;;;;5037453;28;19976;-60
2021/04/16 10:37:55;;;;;;;;;;;17.70;48.10;;;;;;5020725;28;19919;-60
2021/04/16 10:55:26;;;;;;;;;;;17.60;48.20;;;;;;5014241;28;19994;-59
2021/04/16 11:28:20;;;;;;;;;;;17.50;50.00;;;;;;5025345;28;19916;-63
2021/04/16 12:40:50;;;;;;;;;;;17.70;51.00;;;;;;5027737;28;19917;-66
2021/04/16 12:43:15;;;;;;;;;;;17.70;51.10;;;;;;5026316;28;19920;-67
2021/04/16 12:45:41;;;;;;;;;;;17.70;51.10;;;;;;5026957;28;20380;-68
2021/04/16 12:48:06;;;;;;;;;;;17.70;50.80;;;;;;5010574;28;19913;-68
2021/04/16 12:50:32;;;;;;;;;;;17.70;50.70;;;;;;5028374;28;19920;-68
2021/04/16 12:52:58;;;;;;;;;;;17.70;50.80;;;;;;5028306;28;19909;-67
2021/04/16 12:55:24;;;;;;;;;;;17.70;50.70;;;;;;5027275;28;19913;-66
2021/04/16 12:57:53;;;;;;;;;;;17.70;50.70;;;;;;5026883;28;19963;-66
2021/04/16 13:00:26;;;;;;;;;;;17.70;50.60;;;;;;5010437;28;19913;-67
2021/04/16 13:03:00;;;;;;;;;;;17.70;50.60;;;;;;5026723;28;20653;-67
2021/04/16 13:05:25;;;;;;;;;;;17.70;50.50;;;;;;5027180;28;19949;-67
2021/04/16 13:07:50;;;;;;;;;;;17.70;50.50;;;;;;5027806;28;19948;-67
2021/04/16 13:10:16;;;;;;;;;;;17.70;50.40;;;;;;5027917;28;19921;-68
2021/04/16 13:12:42;;;;;;;;;;;17.70;50.30;;;;;;5026927;28;19940;-67
2021/04/16 13:15:07;;;;;;;;;;;17.70;50.30;;;;;;5028333;28;19909;-65
2021/04/16 13:17:33;;;;;;;;;;;17.70;50.30;;;;;;5026466;28;19913;-67
2021/04/16 13:19:58;;;;;;;;;;;17.70;50.20;;;;;;5026501;28;19915;-68
2021/04/16 13:22:25;;;;;;;;;;;17.70;50.20;;;;;;5027514;28;19909;-67
2021/04/16 13:24:50;;;;;;;;;;;17.70;50.20;;;;;;5027843;28;20011;-68
2021/04/16 13:27:17;;;;;;;;;;;17.70;50.30;;;;;;5027540;28;20044;-67
2021/04/16 13:29:42;;;;;;;;;;;17.70;50.30;;;;;;5027446;28;19916;-68
2021/04/16 13:32:14;;;;;;;;;;;17.70;50.30;;;;;;5027504;28;19909;-67
2021/04/16 13:34:40;;;;;;;;;;;17.70;50.40;;;;;;5009866;28;19909;-68
2021/04/16 13:37:05;;;;;;;;;;;17.70;50.40;;;;;;5027103;28;19940;-69
2021/04/16 13:39:31;;;;;;;;;;;17.70;50.40;;;;;;5027405;28;20003;-68
2021/04/16 13:41:56;;;;;;;;;;;17.70;50.50;;;;;;5027350;28;19920;-67
2021/04/16 13:44:22;;;;;;;;;;;17.70;50.50;;;;;;5027710;28;19917;-68
2021/04/16 13:46:48;;;;;;;;;;;17.60;50.50;;;;;;5027365;28;19909;-68
2021/04/16 13:49:18;;;;;;;;;;;17.70;50.60;;;;;;5027250;28;20291;-66
2021/04/16 13:51:44;;;;;;;;;;;17.60;50.50;;;;;;5025976;28;19920;-67
2021/04/16 13:54:09;;;;;;;;;;;17.70;50.60;;;;;;5025205;28;19909;-66
2021/04/16 13:56:35;;;;;;;;;;;17.60;50.60;;;;;;5027093;28;20411;-68
2021/04/16 13:59:01;;;;;;;;;;;17.60;50.60;;;;;;5025883;28;19913;-68
2021/04/16 14:01:26;;;;;;;;;;;17.70;50.50;;;;;;5027115;28;19920;-68
2021/04/16 14:03:55;;;;;;;;;;;17.70;50.40;;;;;;5025888;28;19956;-68
2021/04/16 14:06:24;;;;;;;;;;;17.60;50.30;;;;;;5025619;28;20460;-67
2021/04/16 14:09:00;;;;;;;;;;;17.70;50.30;;;;;;5025695;28;19909;-68
2021/04/16 14:11:25;;;;;;;;;;;17.70;50.30;;;;;;5027388;28;19913;-68
2021/04/16 14:13:51;;;;;;;;;;;17.60;50.10;;;;;;5027311;28;19909;-68
2021/04/16 14:16:29;;;;;;;;;;;17.60;50.10;;;;;;5025812;28;20741;-67
2021/04/16 14:18:55;;;;;;;;;;;17.60;50.10;;;;;;5026844;28;20319;-67
2021/04/16 14:21:20;;;;;;;;;;;17.70;50.00;;;;;;5027428;28;19917;-67
2021/04/16 14:23:46;;;;;;;;;;;17.60;49.90;;;;;;5027382;28;20353;-67
2021/04/16 14:26:12;;;;;;;;;;;17.60;49.80;;;;;;5027138;28;19913;-67
2021/04/16 14:28:37;;;;;;;;;;;17.60;49.80;;;;;;5027467;28;19909;-68
2021/04/16 14:31:03;;;;;;;;;;;17.60;49.70;;;;;;5027033;28;19955;-68
2021/04/16 14:33:29;;;;;;;;;;;17.60;49.70;;;;;;5030062;28;20784;-68
2021/04/16 14:35:55;;;;;;;;;;;17.60;49.80;;;;;;5029148;28;19975;-68
2021/04/16 14:38:21;;;;;;;;;;;17.60;49.70;;;;;;5027935;28;19909;-68
2021/04/16 14:40:46;;;;;;;;;;;17.60;49.70;;;;;;5026944;28;19961;-67
2021/04/16 14:43:11;;;;;;;;;;;17.60;49.60;;;;;;5026599;28;19909;-68
2021/04/16 14:45:38;;;;;;;;;;;17.60;49.60;;;;;;5026706;28;19959;-68
2021/04/16 14:48:04;;;;;;;;;;;17.60;49.60;;;;;;5026550;28;19919;-68
2021/04/16 14:50:29;;;;;;;;;;;17.60;49.70;;;;;;5026497;28;20358;-68
2021/04/16 14:52:55;;;;;;;;;;;17.50;49.70;;;;;;5026780;28;19913;-67
2021/04/16 14:55:21;;;;;;;;;;;17.50;50.00;;;;;;5025425;28;19919;-66
2021/04/16 14:57:46;;;;;;;;;;;17.50;50.00;;;;;;5026843;28;19992;-67
2021/04/16 15:00:31;;;;;;;;;;;17.50;50.00;;;;;;5026560;28;19953;-69
2021/04/16 15:02:56;;;;;;;;;;;17.50;49.90;;;;;;5026769;28;20371;-68
2021/04/16 15:05:22;;;;;;;;;;;17.40;50.80;;;;;;5028429;28;20004;-68
2021/04/16 15:07:54;;;;;;;;;;;17.40;51.20;;;;;;5030509;28;19916;-67
2021/04/16 15:10:27;;;;;;;;;;;17.30;51.80;;;;;;5028485;28;19928;-67
2021/04/16 15:12:52;;;;;;;;;;;17.30;51.60;;;;;;5027357;28;19921;-69
2021/04/16 15:15:31;;;;;;;;;;;17.30;51.90;;;;;;5029505;28;19913;-67
2021/04/16 15:17:57;;;;;;;;;;;17.30;52.00;;;;;;5026625;28;19943;-67
2021/04/16 15:20:23;;;;;;;;;;;17.30;52.40;;;;;;5029039;28;19914;-65
2021/04/16 15:22:49;;;;;;;;;;;17.20;52.30;;;;;;5035581;28;20012;-68
2021/04/16 15:25:14;;;;;;;;;;;17.20;52.50;;;;;;5044170;28;20012;-67
2021/04/16 15:27:42;;;;;;;;;;;17.20;52.60;;;;;;5040818;28;19972;-67
2021/04/16 15:30:09;;;;;;;;;;;17.20;53.10;;;;;;5026619;28;20580;-66
2021/04/16 15:32:38;;;;;;;;;;;17.20;53.40;;;;;;5024585;28;19951;-69
2021/04/16 15:46:25;;;;;;;;;;;17.20;53.60;;;;;;5027207;28;20071;-68
2021/04/16 15:48:50;;;;;;;;;;;17.20;53.80;;;;;;5012334;28;20427;-68
2021/04/16 15:51:17;;;;;;;;;;;17.20;53.80;;;;;;5028151;28;19927;-67
2021/04/16 15:53:43;;;;;;;;;;;17.20;53.80;;;;;;5028989;28;19975;-69
2021/04/16 15:56:08;;;;;;;;;;;17.20;53.80;;;;;;5028035;28;20584;-69
2021/04/16 15:58:35;;;;;;;;;;;17.20;53.90;;;;;;5026460;28;19967;-70
2021/04/16 16:01:01;;;;;;;;;;;17.30;53.80;;;;;;5026535;28;19913;-70
2021/04/16 16:03:27;;;;;;;;;;;17.30;53.90;;;;;;5027980;28;19940;-70
2021/04/16 16:05:52;;;;;;;;;;;17.40;53.80;;;;;;5028240;28;20299;-63
2021/04/16 16:08:18;;;;;;;;;;;17.40;54.00;;;;;;5027765;28;19913;-67
2021/04/16 16:10:44;;;;;;;;;;;17.40;53.80;;;;;;5027313;28;19921;-68
2021/04/16 16:13:24;;;;;;;;;;;17.50;53.90;;;;;;5026816;28;19913;-67
2021/04/16 16:15:50;;;;;;;;;;;17.40;53.80;;;;;;5019310;28;19917;-68
2021/04/16 16:18:16;;;;;;;;;;;17.40;54.00;;;;;;5025459;28;20029;-67
2021/04/16 16:20:43;;;;;;;;;;;17.50;54.10;;;;;;5025860;28;19948;-68
2021/04/16 16:23:09;;;;;;;;;;;17.50;54.10;;;;;;5026155;28;20454;-66
2021/04/16 16:25:34;;;;;;;;;;;17.50;53.90;;;;;;5027340;28;19913;-67
2021/04/16 16:28:00;;;;;;;;;;;17.50;54.10;;;;;;5025911;28;20407;-66
2021/04/16 16:30:27;;;;;;;;;;;17.50;54.10;;;;;;5025579;28;19920;-67
2021/04/16 16:32:52;;;;;;;;;;;17.60;54.10;;;;;;5027651;28;20450;-68
2021/04/16 16:35:19;;;;;;;;;;;17.60;53.90;;;;;;5027199;28;19921;-70